Minerva Virgo — SXXT — position and weather

sailwx.info

Track history (hours):
 
Tides and Currents Weather Stations Pressure Air Temp Water Temp Dewpoint Dewpoint Depression Visibility Wind Speed Wind Dir Waves Ship Positions

Minerva Virgo

Last reported at 2016-May-28 19:26 UTC. Time now 2016-May-28 23:53 UTC.
Position N 49°47' W 005°26'.

Length 182 m; draft 11.5 m.

Type: Ship (hazmat cat A). MMSI: 240730000.

Date/timePositionNaut miles runAvg speedWind from/ knotsBaromVisibWave heightAir tempDewpointWater temp
2016-May-28 19:26N 49°47' W 005°26'1314.1
2016-May-28 18:32N 49°49' W 005°06'1414.3
2016-May-28 17:34N 49°50' W 004°45'1514.7
2016-May-28 16:33N 49°53' W 004°22'1614.9
2016-May-28 15:29N 49°54' W 003°57'1414.8
2016-May-28 14:33N 49°56' W 003°36'1414.3
2016-May-28 13:34N 49°58' W 003°14'1413.5
2016-May-28 12:33N 50°00' W 002°54'1111.3
2016-May-28 11:33N 50°03' W 002°37'2110.5
2016-May-28 09:31N 50°09' W 002°04'4113.1
2016-May-28 06:21N 50°20' W 001°02'1214.5
2016-May-28 05:33N 50°23' W 000°45'1413.6
2016-May-28 04:34N 50°27' W 000°24'1312.7
2016-May-28 03:33N 50°30' W 000°05'1211.7
2016-May-28 02:33N 50°33' E 000°13'1210.8
2016-May-28 01:28N 50°37' E 000°30'15 4.6
2016-May-27 22:19N 50°45' E 000°50'17 8.8
2016-May-27 20:25N 50°55' E 001°11'1010.7
2016-May-27 19:31N 51°02' E 001°22'1212.6
2016-May-27 18:33N 51°09' E 001°37'1313.3
2016-May-27 17:34N 51°19' E 001°51'8 8.3
2016-May-27 16:33N 51°25' E 002°01'1111.3
2016-May-27 15:34N 51°21' E 002°18'1211.7
2016-May-27 14:33N 51°23' E 002°36'1110.9
2016-May-27 13:33N 51°25' E 002°53'1211.8
2016-May-27 12:33N 51°24' E 003°12'1212.3
2016-May-27 11:33N 51°25' E 003°32'10 9.5
2016-May-27 10:33N 51°22' E 003°46'1010.4
2016-May-27 09:34N 51°24' E 004°02'9 9.4
2016-May-27 08:34N 51°21' E 004°16'0 0.4
2016-May-27 07:33N 51°21' E 004°17'0 0.3
2016-May-27 06:33N 51°21' E 004°18'4 3.9
2016-May-27 05:33N 51°17' E 004°20'1 0.9
2016-May-27 04:31N 51°16' E 004°20'0 0.0
2016-May-27 03:22N 51°16' E 004°20'0 0.0
2016-May-27 02:28N 51°16' E 004°20'0 0.0
2016-May-27 01:31N 51°16' E 004°20'0 0.0
2016-May-27 00:28N 51°16' E 004°20'0 0.0
2016-May-26 23:28N 51°16' E 004°20'0 0.0
2016-May-26 22:28N 51°16' E 004°20'0 0.0
2016-May-26 21:28N 51°16' E 004°20'0 0.0
2016-May-26 20:31N 51°16' E 004°20'0 0.0
2016-May-26 19:28N 51°16' E 004°20'0 0.0
2016-May-26 18:31N 51°16' E 004°20'0 0.0
2016-May-26 17:31N 51°16' E 004°20'0 0.0
2016-May-26 16:31N 51°16' E 004°20'0 0.0
2016-May-26 15:28N 51°16' E 004°20'0 0.0
2016-May-26 14:31N 51°16' E 004°20'0 0.0
2016-May-26 13:31N 51°16' E 004°20'0 0.0
2016-May-26 12:31N 51°16' E 004°20'0 0.0
2016-May-26 11:31N 51°16' E 004°20'0 0.0
2016-May-26 10:31N 51°16' E 004°20'0 0.0
2016-May-26 09:31N 51°16' E 004°20'0 0.0
2016-May-26 08:31N 51°16' E 004°20'0 0.0
2016-May-26 07:31N 51°16' E 004°20'0 0.0
2016-May-26 06:31N 51°16' E 004°20'0 0.0
2016-May-26 05:31N 51°16' E 004°20'0 0.0
2016-May-26 04:31N 51°16' E 004°20'0 0.0
2016-May-26 03:31N 51°16' E 004°20'0 0.0
2016-May-26 02:16N 51°16' E 004°20'0 0.0
2016-May-26 01:31N 51°16' E 004°20'0 0.0
2016-May-26 00:22N 51°16' E 004°20'0 0.0
2016-May-25 23:31N 51°16' E 004°20'0 0.0
2016-May-25 22:31N 51°16' E 004°20'0 0.0
2016-May-25 21:28N 51°16' E 004°20'0 0.0
2016-May-25 20:31N 51°16' E 004°20'0 0.0
2016-May-25 19:31N 51°16' E 004°20'0 0.0
2016-May-25 18:31N 51°16' E 004°20'0 0.0
2016-May-25 17:31N 51°16' E 004°20'0 0.0
2016-May-25 16:28N 51°16' E 004°20'0 0.0
2016-May-25 15:31N 51°16' E 004°20'0 0.0
2016-May-25 14:28N 51°16' E 004°20'0 0.0
2016-May-25 13:31N 51°16' E 004°20'0 0.0
2016-May-25 12:31N 51°16' E 004°20'0 0.0
2016-May-25 11:31N 51°16' E 004°20'0 0.0
2016-May-25 10:31N 51°16' E 004°20'0 0.0
2016-May-25 09:31N 51°16' E 004°20'0 0.0
2016-May-25 08:31N 51°16' E 004°20'0 0.0
2016-May-25 07:31N 51°16' E 004°20'0 0.0
2016-May-25 06:31N 51°16' E 004°20'0 0.0
2016-May-25 05:31N 51°16' E 004°20'0 0.0
2016-May-25 04:31N 51°16' E 004°20'0 0.0
2016-May-25 03:31N 51°16' E 004°20'0 0.0
2016-May-25 02:31N 51°16' E 004°20'0 0.0
2016-May-25 01:31N 51°16' E 004°20'0 0.0
2016-May-25 00:28N 51°16' E 004°20'0 0.0
2016-May-24 23:31N 51°16' E 004°20'0 0.0
2016-May-24 22:31N 51°16' E 004°20'0 0.0
2016-May-24 21:31N 51°16' E 004°20'0 0.0
2016-May-24 20:31N 51°16' E 004°20'0 0.0
2016-May-24 19:28N 51°16' E 004°20'0 0.2
2016-May-24 18:33N 51°16' E 004°20'5 4.7
2016-May-24 17:33N 51°21' E 004°17'0 0.0
2016-May-24 16:33N 51°21' E 004°17'2 2.2
2016-May-24 15:33N 51°21' E 004°14'1010.4
2016-May-24 14:34N 51°26' E 003°59'1110.8
2016-May-24 13:33N 51°26' E 003°42'1312.8
2016-May-24 12:33N 51°24' E 003°21'1212.5
2016-May-24 11:34N 51°24' E 003°01'1211.7
2016-May-24 10:33N 51°22' E 002°43'5 5.1
2016-May-24 09:33N 51°26' E 002°38'0 0.1
2016-May-24 07:19N 51°26' E 002°37'0 0.0
2016-May-24 06:16N 51°26' E 002°37'0 0.0
2016-May-24 05:31N 51°26' E 002°37'0 0.1
2016-May-24 04:22N 51°26' E 002°38'0 0.1
2016-May-24 03:10N 51°26' E 002°38'0 0.1
2016-May-24 01:25N 51°26' E 002°38'0 0.1
2016-May-23 23:22N 51°26' E 002°37'0 0.0
2016-May-23 22:16N 51°26' E 002°37'0 0.0
2016-May-23 21:31N 51°26' E 002°37'0 0.0
2016-May-23 20:28N 51°26' E 002°37'0 0.0
2016-May-23 19:28N 51°26' E 002°37'0 0.0
2016-May-23 18:07N 51°26' E 002°37'0 0.0
2016-May-23 17:16N 51°26' E 002°37'0 0.1
2016-May-23 16:31N 51°26' E 002°38'0 0.5
2016-May-23 15:33N 51°26' E 002°38'7 7.1
2016-May-23 14:34N 51°22' E 002°29'1211.5
2016-May-23 13:33N 51°19' E 002°11'1110.8
2016-May-23 12:34N 51°26' E 001°59'1211.8
2016-May-23 11:34N 51°35' E 002°11'9 9.0
2016-May-23 10:34N 51°41' E 002°22'3 2.8
2016-May-23 09:33N 51°44' E 002°24'3 2.9
2016-May-23 08:31N 51°46' E 002°27'5 5.0
2016-May-23 07:33N 51°50' E 002°31'1110.8
2016-May-23 06:33N 52°00' E 002°38'6 0.4
2016-May-22 15:04N 52°05' E 002°44'0 0.1
2016-May-22 11:31N 52°05' E 002°44'0 0.0
2016-May-21 00:16N 52°05' E 002°44'0 0.0
2016-May-20 23:28N 52°05' E 002°44'0 0.1
2016-May-20 21:19N 52°05' E 002°44'0 0.0
2016-May-20 19:31N 52°05' E 002°44'0 0.2
2016-May-20 18:28N 52°05' E 002°44'0 0.0
2016-May-19 19:07N 52°05' E 002°44'  
Track history (hours):
 
Tides and Currents Weather Stations Pressure Air Temp Water Temp Dewpoint Dewpoint Depression Visibility Wind Speed Wind Dir Waves Ship Positions

Minerva Virgo

Last reported at 2016-May-28 19:26 UTC. Time now 2016-May-28 23:53 UTC.
Position N 49°47' W 005°26'.

Length 182 m; draft 11.5 m.

Type: Ship (hazmat cat A). MMSI: 240730000.

Date/timePositionNaut miles runAvg speedWind from/ knotsBaromVisibWave heightAir tempDewpointWater temp
2016-May-28 19:26N 49°47' W 005°26'1314.1
2016-May-28 18:32N 49°49' W 005°06'1414.3
2016-May-28 17:34N 49°50' W 004°45'1514.7
2016-May-28 16:33N 49°53' W 004°22'1614.9
2016-May-28 15:29N 49°54' W 003°57'1414.8
2016-May-28 14:33N 49°56' W 003°36'1414.3
2016-May-28 13:34N 49°58' W 003°14'1413.5
2016-May-28 12:33N 50°00' W 002°54'1111.3
2016-May-28 11:33N 50°03' W 002°37'2110.5
2016-May-28 09:31N 50°09' W 002°04'4113.1
2016-May-28 06:21N 50°20' W 001°02'1214.5
2016-May-28 05:33N 50°23' W 000°45'1413.6
2016-May-28 04:34N 50°27' W 000°24'1312.7
2016-May-28 03:33N 50°30' W 000°05'1211.7
2016-May-28 02:33N 50°33' E 000°13'1210.8
2016-May-28 01:28N 50°37' E 000°30'15 4.6
2016-May-27 22:19N 50°45' E 000°50'17 8.8
2016-May-27 20:25N 50°55' E 001°11'1010.7
2016-May-27 19:31N 51°02' E 001°22'1212.6
2016-May-27 18:33N 51°09' E 001°37'1313.3
2016-May-27 17:34N 51°19' E 001°51'8 8.3
2016-May-27 16:33N 51°25' E 002°01'1111.3
2016-May-27 15:34N 51°21' E 002°18'1211.7
2016-May-27 14:33N 51°23' E 002°36'1110.9
2016-May-27 13:33N 51°25' E 002°53'1211.8
2016-May-27 12:33N 51°24' E 003°12'1212.3
2016-May-27 11:33N 51°25' E 003°32'10 9.5
2016-May-27 10:33N 51°22' E 003°46'1010.4
2016-May-27 09:34N 51°24' E 004°02'9 9.4
2016-May-27 08:34N 51°21' E 004°16'0 0.4
2016-May-27 07:33N 51°21' E 004°17'0 0.3
2016-May-27 06:33N 51°21' E 004°18'4 3.9
2016-May-27 05:33N 51°17' E 004°20'1 0.9
2016-May-27 04:31N 51°16' E 004°20'0 0.0
2016-May-27 03:22N 51°16' E 004°20'0 0.0
2016-May-27 02:28N 51°16' E 004°20'0 0.0
2016-May-27 01:31N 51°16' E 004°20'0 0.0
2016-May-27 00:28N 51°16' E 004°20'0 0.0
2016-May-26 23:28N 51°16' E 004°20'0 0.0
2016-May-26 22:28N 51°16' E 004°20'0 0.0
2016-May-26 21:28N 51°16' E 004°20'0 0.0
2016-May-26 20:31N 51°16' E 004°20'0 0.0
2016-May-26 19:28N 51°16' E 004°20'0 0.0
2016-May-26 18:31N 51°16' E 004°20'0 0.0
2016-May-26 17:31N 51°16' E 004°20'0 0.0
2016-May-26 16:31N 51°16' E 004°20'0 0.0
2016-May-26 15:28N 51°16' E 004°20'0 0.0
2016-May-26 14:31N 51°16' E 004°20'0 0.0
2016-May-26 13:31N 51°16' E 004°20'0 0.0
2016-May-26 12:31N 51°16' E 004°20'0 0.0
2016-May-26 11:31N 51°16' E 004°20'0 0.0
2016-May-26 10:31N 51°16' E 004°20'0 0.0
2016-May-26 09:31N 51°16' E 004°20'0 0.0
2016-May-26 08:31N 51°16' E 004°20'0 0.0
2016-May-26 07:31N 51°16' E 004°20'0 0.0
2016-May-26 06:31N 51°16' E 004°20'0 0.0
2016-May-26 05:31N 51°16' E 004°20'0 0.0
2016-May-26 04:31N 51°16' E 004°20'0 0.0
2016-May-26 03:31N 51°16' E 004°20'0 0.0
2016-May-26 02:16N 51°16' E 004°20'0 0.0
2016-May-26 01:31N 51°16' E 004°20'0 0.0
2016-May-26 00:22N 51°16' E 004°20'0 0.0
2016-May-25 23:31N 51°16' E 004°20'0 0.0
2016-May-25 22:31N 51°16' E 004°20'0 0.0
2016-May-25 21:28N 51°16' E 004°20'0 0.0
2016-May-25 20:31N 51°16' E 004°20'0 0.0
2016-May-25 19:31N 51°16' E 004°20'0 0.0
2016-May-25 18:31N 51°16' E 004°20'0 0.0
2016-May-25 17:31N 51°16' E 004°20'0 0.0
2016-May-25 16:28N 51°16' E 004°20'0 0.0
2016-May-25 15:31N 51°16' E 004°20'0 0.0
2016-May-25 14:28N 51°16' E 004°20'0 0.0
2016-May-25 13:31N 51°16' E 004°20'0 0.0
2016-May-25 12:31N 51°16' E 004°20'0 0.0
2016-May-25 11:31N 51°16' E 004°20'0 0.0
2016-May-25 10:31N 51°16' E 004°20'0 0.0
2016-May-25 09:31N 51°16' E 004°20'0 0.0
2016-May-25 08:31N 51°16' E 004°20'0 0.0
2016-May-25 07:31N 51°16' E 004°20'0 0.0
2016-May-25 06:31N 51°16' E 004°20'0 0.0
2016-May-25 05:31N 51°16' E 004°20'0 0.0
2016-May-25 04:31N 51°16' E 004°20'0 0.0
2016-May-25 03:31N 51°16' E 004°20'0 0.0
2016-May-25 02:31N 51°16' E 004°20'0 0.0
2016-May-25 01:31N 51°16' E 004°20'0 0.0
2016-May-25 00:28N 51°16' E 004°20'0 0.0
2016-May-24 23:31N 51°16' E 004°20'0 0.0
2016-May-24 22:31N 51°16' E 004°20'0 0.0
2016-May-24 21:31N 51°16' E 004°20'0 0.0
2016-May-24 20:31N 51°16' E 004°20'0 0.0
2016-May-24 19:28N 51°16' E 004°20'0 0.2
2016-May-24 18:33N 51°16' E 004°20'5 4.7
2016-May-24 17:33N 51°21' E 004°17'0 0.0
2016-May-24 16:33N 51°21' E 004°17'2 2.2
2016-May-24 15:33N 51°21' E 004°14'1010.4
2016-May-24 14:34N 51°26' E 003°59'1110.8
2016-May-24 13:33N 51°26' E 003°42'1312.8
2016-May-24 12:33N 51°24' E 003°21'1212.5
2016-May-24 11:34N 51°24' E 003°01'1211.7
2016-May-24 10:33N 51°22' E 002°43'5 5.1
2016-May-24 09:33N 51°26' E 002°38'0 0.1
2016-May-24 07:19N 51°26' E 002°37'0 0.0
2016-May-24 06:16N 51°26' E 002°37'0 0.0
2016-May-24 05:31N 51°26' E 002°37'0 0.1
2016-May-24 04:22N 51°26' E 002°38'0 0.1
2016-May-24 03:10N 51°26' E 002°38'0 0.1
2016-May-24 01:25N 51°26' E 002°38'0 0.1
2016-May-23 23:22N 51°26' E 002°37'0 0.0
2016-May-23 22:16N 51°26' E 002°37'0 0.0
2016-May-23 21:31N 51°26' E 002°37'0 0.0
2016-May-23 20:28N 51°26' E 002°37'0 0.0
2016-May-23 19:28N 51°26' E 002°37'0 0.0
2016-May-23 18:07N 51°26' E 002°37'0 0.0
2016-May-23 17:16N 51°26' E 002°37'0 0.1
2016-May-23 16:31N 51°26' E 002°38'0 0.5
2016-May-23 15:33N 51°26' E 002°38'7 7.1
2016-May-23 14:34N 51°22' E 002°29'1211.5
2016-May-23 13:33N 51°19' E 002°11'1110.8
2016-May-23 12:34N 51°26' E 001°59'1211.8
2016-May-23 11:34N 51°35' E 002°11'9 9.0
2016-May-23 10:34N 51°41' E 002°22'3 2.8
2016-May-23 09:33N 51°44' E 002°24'3 2.9
2016-May-23 08:31N 51°46' E 002°27'5 5.0
2016-May-23 07:33N 51°50' E 002°31'1110.8
2016-May-23 06:33N 52°00' E 002°38'6 0.4
2016-May-22 15:04N 52°05' E 002°44'0 0.1
2016-May-22 11:31N 52°05' E 002°44'0 0.0
2016-May-21 00:16N 52°05' E 002°44'0 0.0
2016-May-20 23:28N 52°05' E 002°44'0 0.1
2016-May-20 21:19N 52°05' E 002°44'0 0.0
2016-May-20 19:31N 52°05' E 002°44'0 0.2
2016-May-20 18:28N 52°05' E 002°44'0 0.0
2016-May-19 19:07N 52°05' E 002°44'  

Dump ship's entire track history